sensor_id;sensor_type;location;lat;lon;timestamp;P1;durP1;ratioP1;P2;durP2;ratioP2
7295;SDS011;40758;54.038;11.684;2023-06-14T00:00:23;8.55;;;3.38;;
7295;SDS011;40758;54.038;11.684;2023-06-14T00:02:50;5.68;;;2.38;;
7295;SDS011;40758;54.038;11.684;2023-06-14T00:05:17;7.45;;;3.35;;
7295;SDS011;40758;54.038;11.684;2023-06-14T00:07:44;5.82;;;3.00;;
7295;SDS011;40758;54.038;11.684;2023-06-14T00:10:14;7.10;;;3.95;;
7295;SDS011;40758;54.038;11.684;2023-06-14T00:12:42;10.57;;;3.92;;
7295;SDS011;40758;54.038;11.684;2023-06-14T00:15:10;8.90;;;3.35;;
7295;SDS011;40758;54.038;11.684;2023-06-14T00:17:36;14.80;;;3.80;;
7295;SDS011;40758;54.038;11.684;2023-06-14T00:20:05;6.78;;;4.22;;
7295;SDS011;40758;54.038;11.684;2023-06-14T00:22:33;7.30;;;2.78;;
7295;SDS011;40758;54.038;11.684;2023-06-14T00:25:00;8.15;;;3.53;;
7295;SDS011;40758;54.038;11.684;2023-06-14T00:27:40;6.35;;;2.88;;
7295;SDS011;40758;54.038;11.684;2023-06-14T00:30:07;8.15;;;2.80;;
7295;SDS011;40758;54.038;11.684;2023-06-14T00:32:34;6.95;;;2.78;;
7295;SDS011;40758;54.038;11.684;2023-06-14T00:35:01;7.45;;;3.70;;
7295;SDS011;40758;54.038;11.684;2023-06-14T00:37:28;6.60;;;2.97;;
7295;SDS011;40758;54.038;11.684;2023-06-14T00:39:55;6.30;;;2.40;;
7295;SDS011;40758;54.038;11.684;2023-06-14T00:42:26;5.90;;;3.15;;
7295;SDS011;40758;54.038;11.684;2023-06-14T00:44:53;8.23;;;2.97;;
7295;SDS011;40758;54.038;11.684;2023-06-14T00:47:21;7.00;;;3.30;;
7295;SDS011;40758;54.038;11.684;2023-06-14T00:49:51;7.28;;;3.80;;
7295;SDS011;40758;54.038;11.684;2023-06-14T00:52:20;7.03;;;2.67;;
7295;SDS011;40758;54.038;11.684;2023-06-14T00:54:47;5.93;;;2.85;;
7295;SDS011;40758;54.038;11.684;2023-06-14T00:57:13;8.63;;;3.17;;
7295;SDS011;40758;54.038;11.684;2023-06-14T00:59:44;9.88;;;3.30;;
7295;SDS011;40758;54.038;11.684;2023-06-14T01:02:12;7.95;;;3.28;;
7295;SDS011;40758;54.038;11.684;2023-06-14T01:04:41;8.93;;;3.67;;
7295;SDS011;40758;54.038;11.684;2023-06-14T01:07:27;9.25;;;4.00;;
7295;SDS011;40758;54.038;11.684;2023-06-14T01:15:20;8.07;;;3.58;;
7295;SDS011;40758;54.038;11.684;2023-06-14T01:17:48;8.32;;;3.72;;
7295;SDS011;40758;54.038;11.684;2023-06-14T01:20:19;7.30;;;3.47;;
7295;SDS011;40758;54.038;11.684;2023-06-14T01:22:52;7.95;;;3.60;;
7295;SDS011;40758;54.038;11.684;2023-06-14T01:25:20;10.88;;;3.88;;
7295;SDS011;40758;54.038;11.684;2023-06-14T01:28:05;12.50;;;4.47;;
7295;SDS011;40758;54.038;11.684;2023-06-14T01:30:39;9.63;;;3.47;;
7295;SDS011;40758;54.038;11.684;2023-06-14T01:33:12;8.35;;;3.53;;
7295;SDS011;40758;54.038;11.684;2023-06-14T01:35:45;11.82;;;4.45;;
7295;SDS011;40758;54.038;11.684;2023-06-14T01:38:14;11.48;;;4.35;;
7295;SDS011;40758;54.038;11.684;2023-06-14T01:40:42;7.32;;;4.65;;
7295;SDS011;40758;54.038;11.684;2023-06-14T01:43:14;11.60;;;5.07;;
7295;SDS011;40758;54.038;11.684;2023-06-14T01:45:42;13.02;;;4.25;;
7295;SDS011;40758;54.038;11.684;2023-06-14T01:48:11;7.60;;;4.10;;
7295;SDS011;40758;54.038;11.684;2023-06-14T01:50:38;7.90;;;4.32;;
7295;SDS011;40758;54.038;11.684;2023-06-14T01:53:09;8.98;;;4.85;;
7295;SDS011;40758;54.038;11.684;2023-06-14T01:55:36;8.27;;;4.75;;
7295;SDS011;40758;54.038;11.684;2023-06-14T01:58:10;7.28;;;3.63;;
7295;SDS011;40758;54.038;11.684;2023-06-14T02:00:37;9.35;;;3.92;;
7295;SDS011;40758;54.038;11.684;2023-06-14T02:03:04;8.90;;;5.57;;
7295;SDS011;40758;54.038;11.684;2023-06-14T02:05:31;11.45;;;5.63;;
7295;SDS011;40758;54.038;11.684;2023-06-14T02:07:57;10.80;;;5.47;;
7295;SDS011;40758;54.038;11.684;2023-06-14T02:10:24;10.90;;;5.38;;
7295;SDS011;40758;54.038;11.684;2023-06-14T02:12:51;7.75;;;3.83;;
7295;SDS011;40758;54.038;11.684;2023-06-14T02:15:18;8.48;;;4.00;;
7295;SDS011;40758;54.038;11.684;2023-06-14T02:17:46;9.90;;;4.85;;
7295;SDS011;40758;54.038;11.684;2023-06-14T02:20:16;10.02;;;4.75;;
7295;SDS011;40758;54.038;11.684;2023-06-14T02:22:44;8.55;;;4.28;;
7295;SDS011;40758;54.038;11.684;2023-06-14T02:25:11;10.43;;;4.68;;
7295;SDS011;40758;54.038;11.684;2023-06-14T02:27:39;9.15;;;4.97;;
7295;SDS011;40758;54.038;11.684;2023-06-14T02:30:06;12.43;;;5.47;;
7295;SDS011;40758;54.038;11.684;2023-06-14T02:32:33;9.77;;;5.43;;
7295;SDS011;40758;54.038;11.684;2023-06-14T02:35:02;13.00;;;4.72;;
7295;SDS011;40758;54.038;11.684;2023-06-14T02:37:30;12.27;;;5.65;;
7295;SDS011;40758;54.038;11.684;2023-06-14T02:39:56;13.88;;;6.32;;
7295;SDS011;40758;54.038;11.684;2023-06-14T02:42:23;11.98;;;5.22;;
7295;SDS011;40758;54.038;11.684;2023-06-14T02:44:50;11.48;;;5.03;;
7295;SDS011;40758;54.038;11.684;2023-06-14T02:47:18;8.55;;;3.67;;
7295;SDS011;40758;54.038;11.684;2023-06-14T02:49:45;11.65;;;5.45;;
7295;SDS011;40758;54.038;11.684;2023-06-14T02:52:15;11.80;;;5.18;;
7295;SDS011;40758;54.038;11.684;2023-06-14T02:54:42;8.63;;;3.97;;
7295;SDS011;40758;54.038;11.684;2023-06-14T02:57:09;11.93;;;5.18;;
7295;SDS011;40758;54.038;11.684;2023-06-14T02:59:37;8.93;;;4.50;;
7295;SDS011;40758;54.038;11.684;2023-06-14T03:02:04;11.27;;;7.70;;
7295;SDS011;40758;54.038;11.684;2023-06-14T03:04:31;11.05;;;5.25;;
7295;SDS011;40758;54.038;11.684;2023-06-14T03:07:03;9.77;;;4.65;;
7295;SDS011;40758;54.038;11.684;2023-06-14T03:09:36;12.65;;;5.55;;
7295;SDS011;40758;54.038;11.684;2023-06-14T03:12:04;15.95;;;5.75;;
7295;SDS011;40758;54.038;11.684;2023-06-14T03:14:34;12.07;;;5.50;;
7295;SDS011;40758;54.038;11.684;2023-06-14T03:17:01;11.77;;;6.05;;
7295;SDS011;40758;54.038;11.684;2023-06-14T03:19:31;12.43;;;6.68;;
7295;SDS011;40758;54.038;11.684;2023-06-14T03:21:58;12.73;;;6.28;;
7295;SDS011;40758;54.038;11.684;2023-06-14T03:24:25;14.25;;;6.22;;
7295;SDS011;40758;54.038;11.684;2023-06-14T03:26:55;12.02;;;7.15;;
7295;SDS011;40758;54.038;11.684;2023-06-14T03:29:23;14.38;;;5.18;;
7295;SDS011;40758;54.038;11.684;2023-06-14T03:31:57;11.52;;;6.22;;
7295;SDS011;40758;54.038;11.684;2023-06-14T03:34:25;14.05;;;5.88;;
7295;SDS011;40758;54.038;11.684;2023-06-14T03:36:52;14.90;;;5.20;;
7295;SDS011;40758;54.038;11.684;2023-06-14T03:39:19;10.52;;;4.72;;
7295;SDS011;40758;54.038;11.684;2023-06-14T03:41:46;9.75;;;4.50;;
7295;SDS011;40758;54.038;11.684;2023-06-14T03:44:15;11.45;;;5.30;;
7295;SDS011;40758;54.038;11.684;2023-06-14T03:46:45;10.73;;;5.32;;
7295;SDS011;40758;54.038;11.684;2023-06-14T03:49:12;9.30;;;5.93;;
7295;SDS011;40758;54.038;11.684;2023-06-14T03:51:40;9.52;;;5.75;;
7295;SDS011;40758;54.038;11.684;2023-06-14T03:54:07;11.88;;;5.32;;
7295;SDS011;40758;54.038;11.684;2023-06-14T03:56:37;11.00;;;6.13;;
7295;SDS011;40758;54.038;11.684;2023-06-14T03:59:03;9.95;;;4.55;;
7295;SDS011;40758;54.038;11.684;2023-06-14T04:01:30;9.85;;;4.65;;
7295;SDS011;40758;54.038;11.684;2023-06-14T04:03:57;10.18;;;4.55;;
7295;SDS011;40758;54.038;11.684;2023-06-14T04:06:24;8.60;;;3.95;;
7295;SDS011;40758;54.038;11.684;2023-06-14T04:08:59;11.38;;;5.05;;
7295;SDS011;40758;54.038;11.684;2023-06-14T04:11:29;8.27;;;4.50;;
7295;SDS011;40758;54.038;11.684;2023-06-14T04:13:57;8.57;;;4.60;;
7295;SDS011;40758;54.038;11.684;2023-06-14T04:16:24;9.70;;;5.63;;
7295;SDS011;40758;54.038;11.684;2023-06-14T04:18:51;8.57;;;4.50;;
7295;SDS011;40758;54.038;11.684;2023-06-14T04:21:18;10.20;;;4.32;;
7295;SDS011;40758;54.038;11.684;2023-06-14T04:23:45;9.00;;;4.55;;
7295;SDS011;40758;54.038;11.684;2023-06-14T04:26:12;8.68;;;4.90;;
7295;SDS011;40758;54.038;11.684;2023-06-14T04:28:39;10.32;;;4.90;;
7295;SDS011;40758;54.038;11.684;2023-06-14T04:31:07;8.25;;;4.03;;
7295;SDS011;40758;54.038;11.684;2023-06-14T04:33:37;12.10;;;4.97;;
7295;SDS011;40758;54.038;11.684;2023-06-14T04:36:12;8.60;;;4.68;;
7295;SDS011;40758;54.038;11.684;2023-06-14T04:38:44;12.80;;;6.65;;
7295;SDS011;40758;54.038;11.684;2023-06-14T04:41:15;11.13;;;5.93;;
7295;SDS011;40758;54.038;11.684;2023-06-14T04:43:42;10.15;;;4.05;;
7295;SDS011;40758;54.038;11.684;2023-06-14T04:46:10;9.40;;;3.05;;
7295;SDS011;40758;54.038;11.684;2023-06-14T04:48:38;7.32;;;3.13;;
7295;SDS011;40758;54.038;11.684;2023-06-14T04:51:07;11.30;;;4.85;;
7295;SDS011;40758;54.038;11.684;2023-06-14T04:53:35;8.55;;;3.72;;
7295;SDS011;40758;54.038;11.684;2023-06-14T04:56:01;7.32;;;3.58;;
7295;SDS011;40758;54.038;11.684;2023-06-14T04:58:30;10.48;;;3.83;;
7295;SDS011;40758;54.038;11.684;2023-06-14T05:00:58;9.27;;;3.83;;
7295;SDS011;40758;54.038;11.684;2023-06-14T05:03:25;9.07;;;2.75;;
7295;SDS011;40758;54.038;11.684;2023-06-14T05:05:53;12.27;;;3.15;;
7295;SDS011;40758;54.038;11.684;2023-06-14T05:08:21;13.98;;;3.53;;
7295;SDS011;40758;54.038;11.684;2023-06-14T05:10:50;12.82;;;4.63;;
7295;SDS011;40758;54.038;11.684;2023-06-14T05:13:18;18.27;;;4.22;;
7295;SDS011;40758;54.038;11.684;2023-06-14T05:15:45;11.98;;;3.20;;
7295;SDS011;40758;54.038;11.684;2023-06-14T05:18:12;10.05;;;4.18;;
7295;SDS011;40758;54.038;11.684;2023-06-14T05:20:40;10.27;;;3.40;;
7295;SDS011;40758;54.038;11.684;2023-06-14T05:23:08;5.57;;;3.47;;
7295;SDS011;40758;54.038;11.684;2023-06-14T05:25:45;6.95;;;2.70;;
7295;SDS011;40758;54.038;11.684;2023-06-14T05:28:13;8.13;;;4.03;;
7295;SDS011;40758;54.038;11.684;2023-06-14T05:30:39;6.38;;;2.90;;
7295;SDS011;40758;54.038;11.684;2023-06-14T05:33:07;6.78;;;2.70;;
7295;SDS011;40758;54.038;11.684;2023-06-14T05:35:34;10.52;;;4.22;;
7295;SDS011;40758;54.038;11.684;2023-06-14T05:38:00;6.93;;;3.83;;
7295;SDS011;40758;54.038;11.684;2023-06-14T05:40:27;7.97;;;3.20;;
7295;SDS011;40758;54.038;11.684;2023-06-14T05:42:54;8.45;;;3.58;;
7295;SDS011;40758;54.038;11.684;2023-06-14T05:45:21;8.75;;;2.88;;
7295;SDS011;40758;54.038;11.684;2023-06-14T05:47:47;7.63;;;2.88;;
7295;SDS011;40758;54.038;11.684;2023-06-14T05:50:14;6.47;;;2.63;;
7295;SDS011;40758;54.038;11.684;2023-06-14T05:52:41;5.07;;;3.22;;
7295;SDS011;40758;54.038;11.684;2023-06-14T05:55:08;5.82;;;2.90;;
7295;SDS011;40758;54.038;11.684;2023-06-14T05:57:35;7.38;;;2.53;;
7295;SDS011;40758;54.038;11.684;2023-06-14T06:00:02;6.30;;;2.92;;
7295;SDS011;40758;54.038;11.684;2023-06-14T06:02:37;4.55;;;2.90;;
7295;SDS011;40758;54.038;11.684;2023-06-14T06:05:04;6.05;;;2.97;;
7295;SDS011;40758;54.038;11.684;2023-06-14T06:07:32;6.55;;;3.35;;
7295;SDS011;40758;54.038;11.684;2023-06-14T06:10:03;6.10;;;2.88;;
7295;SDS011;40758;54.038;11.684;2023-06-14T06:12:31;7.10;;;3.95;;
7295;SDS011;40758;54.038;11.684;2023-06-14T06:14:59;7.57;;;2.47;;
7295;SDS011;40758;54.038;11.684;2023-06-14T06:17:26;5.20;;;2.53;;
7295;SDS011;40758;54.038;11.684;2023-06-14T06:20:07;5.70;;;3.15;;
7295;SDS011;40758;54.038;11.684;2023-06-14T06:22:36;6.60;;;2.70;;
7295;SDS011;40758;54.038;11.684;2023-06-14T06:25:02;5.03;;;2.78;;
7295;SDS011;40758;54.038;11.684;2023-06-14T06:27:29;5.75;;;2.20;;
7295;SDS011;40758;54.038;11.684;2023-06-14T06:29:56;5.40;;;2.28;;
7295;SDS011;40758;54.038;11.684;2023-06-14T06:32:22;5.90;;;3.28;;
7295;SDS011;40758;54.038;11.684;2023-06-14T06:34:49;7.43;;;3.22;;
7295;SDS011;40758;54.038;11.684;2023-06-14T06:37:16;5.57;;;2.70;;
7295;SDS011;40758;54.038;11.684;2023-06-14T06:39:43;4.85;;;2.35;;
7295;SDS011;40758;54.038;11.684;2023-06-14T06:42:10;3.72;;;1.85;;
7295;SDS011;40758;54.038;11.684;2023-06-14T06:44:37;5.07;;;2.40;;
7295;SDS011;40758;54.038;11.684;2023-06-14T06:47:03;9.02;;;3.50;;
7295;SDS011;40758;54.038;11.684;2023-06-14T06:49:30;7.57;;;2.70;;
7295;SDS011;40758;54.038;11.684;2023-06-14T06:52:00;5.72;;;2.33;;
7295;SDS011;40758;54.038;11.684;2023-06-14T06:54:29;6.10;;;3.03;;
7295;SDS011;40758;54.038;11.684;2023-06-14T06:56:57;7.38;;;2.08;;
7295;SDS011;40758;54.038;11.684;2023-06-14T06:59:24;6.20;;;2.70;;
7295;SDS011;40758;54.038;11.684;2023-06-14T07:01:51;7.50;;;3.47;;
7295;SDS011;40758;54.038;11.684;2023-06-14T07:04:20;6.35;;;3.97;;
7295;SDS011;40758;54.038;11.684;2023-06-14T07:06:46;5.65;;;2.47;;
7295;SDS011;40758;54.038;11.684;2023-06-14T07:09:14;5.05;;;2.55;;
7295;SDS011;40758;54.038;11.684;2023-06-14T07:11:43;11.82;;;3.70;;
7295;SDS011;40758;54.038;11.684;2023-06-14T07:14:10;5.68;;;2.55;;
7295;SDS011;40758;54.038;11.684;2023-06-14T07:16:37;6.78;;;3.72;;
7295;SDS011;40758;54.038;11.684;2023-06-14T07:19:05;5.63;;;2.80;;
7295;SDS011;40758;54.038;11.684;2023-06-14T07:21:32;5.75;;;3.30;;
7295;SDS011;40758;54.038;11.684;2023-06-14T07:23:58;6.05;;;2.55;;
7295;SDS011;40758;54.038;11.684;2023-06-14T07:26:25;6.68;;;2.50;;
7295;SDS011;40758;54.038;11.684;2023-06-14T07:28:52;8.68;;;3.13;;
7295;SDS011;40758;54.038;11.684;2023-06-14T07:31:19;5.40;;;2.25;;
7295;SDS011;40758;54.038;11.684;2023-06-14T07:33:45;5.32;;;3.20;;
7295;SDS011;40758;54.038;11.684;2023-06-14T07:36:12;3.60;;;2.15;;
7295;SDS011;40758;54.038;11.684;2023-06-14T07:38:39;4.28;;;3.10;;
7295;SDS011;40758;54.038;11.684;2023-06-14T07:41:07;4.30;;;2.45;;
7295;SDS011;40758;54.038;11.684;2023-06-14T07:43:33;5.05;;;2.28;;
7295;SDS011;40758;54.038;11.684;2023-06-14T07:46:00;6.88;;;2.35;;
7295;SDS011;40758;54.038;11.684;2023-06-14T07:48:33;6.60;;;3.28;;
7295;SDS011;40758;54.038;11.684;2023-06-14T07:51:01;6.70;;;2.53;;
7295;SDS011;40758;54.038;11.684;2023-06-14T07:53:27;9.10;;;3.38;;
7295;SDS011;40758;54.038;11.684;2023-06-14T07:55:54;7.47;;;3.10;;
7295;SDS011;40758;54.038;11.684;2023-06-14T07:58:21;5.82;;;3.08;;
7295;SDS011;40758;54.038;11.684;2023-06-14T08:00:48;6.68;;;3.42;;
7295;SDS011;40758;54.038;11.684;2023-06-14T08:03:15;4.47;;;2.95;;
7295;SDS011;40758;54.038;11.684;2023-06-14T08:05:42;4.43;;;2.63;;
7295;SDS011;40758;54.038;11.684;2023-06-14T08:08:08;5.10;;;2.80;;
7295;SDS011;40758;54.038;11.684;2023-06-14T08:10:35;5.13;;;2.78;;
7295;SDS011;40758;54.038;11.684;2023-06-14T08:13:02;4.70;;;2.40;;
7295;SDS011;40758;54.038;11.684;2023-06-14T08:15:29;8.18;;;3.38;;
7295;SDS011;40758;54.038;11.684;2023-06-14T08:17:56;6.60;;;3.67;;
7295;SDS011;40758;54.038;11.684;2023-06-14T08:20:23;4.93;;;3.08;;
7295;SDS011;40758;54.038;11.684;2023-06-14T08:25:21;7.32;;;3.38;;
7295;SDS011;40758;54.038;11.684;2023-06-14T08:27:48;6.10;;;2.22;;
7295;SDS011;40758;54.038;11.684;2023-06-14T08:32:43;8.63;;;2.22;;
7295;SDS011;40758;54.038;11.684;2023-06-14T08:35:10;4.90;;;2.20;;
7295;SDS011;40758;54.038;11.684;2023-06-14T08:37:42;5.10;;;1.92;;
7295;SDS011;40758;54.038;11.684;2023-06-14T08:40:30;3.70;;;2.63;;
7295;SDS011;40758;54.038;11.684;2023-06-14T08:42:57;5.38;;;2.63;;
7295;SDS011;40758;54.038;11.684;2023-06-14T08:45:24;5.75;;;1.98;;
7295;SDS011;40758;54.038;11.684;2023-06-14T08:47:54;5.72;;;2.33;;
7295;SDS011;40758;54.038;11.684;2023-06-14T08:50:25;5.50;;;2.55;;
7295;SDS011;40758;54.038;11.684;2023-06-14T08:52:57;3.97;;;2.35;;
7295;SDS011;40758;54.038;11.684;2023-06-14T08:55:30;4.18;;;2.45;;
7295;SDS011;40758;54.038;11.684;2023-06-14T08:58:03;3.60;;;2.25;;
7295;SDS011;40758;54.038;11.684;2023-06-14T09:00:31;5.72;;;1.73;;
7295;SDS011;40758;54.038;11.684;2023-06-14T09:03:00;4.35;;;2.40;;
7295;SDS011;40758;54.038;11.684;2023-06-14T09:05:27;3.85;;;1.98;;
7295;SDS011;40758;54.038;11.684;2023-06-14T09:07:55;5.07;;;2.20;;
7295;SDS011;40758;54.038;11.684;2023-06-14T09:10:31;4.88;;;2.20;;
7295;SDS011;40758;54.038;11.684;2023-06-14T09:13:04;4.75;;;2.55;;
7295;SDS011;40758;54.038;11.684;2023-06-14T09:15:31;4.65;;;2.35;;
7295;SDS011;40758;54.038;11.684;2023-06-14T09:17:59;4.20;;;1.95;;
7295;SDS011;40758;54.038;11.684;2023-06-14T09:20:29;4.47;;;2.35;;
7295;SDS011;40758;54.038;11.684;2023-06-14T09:22:56;5.05;;;2.55;;
7295;SDS011;40758;54.038;11.684;2023-06-14T09:25:23;4.70;;;2.88;;
7295;SDS011;40758;54.038;11.684;2023-06-14T09:28:08;4.35;;;2.20;;
7295;SDS011;40758;54.038;11.684;2023-06-14T09:30:38;4.43;;;2.33;;
7295;SDS011;40758;54.038;11.684;2023-06-14T09:33:05;4.13;;;3.08;;
7295;SDS011;40758;54.038;11.684;2023-06-14T09:35:32;7.32;;;2.92;;
7295;SDS011;40758;54.038;11.684;2023-06-14T09:37:59;8.40;;;2.95;;
7295;SDS011;40758;54.038;11.684;2023-06-14T09:40:26;6.75;;;3.63;;
7295;SDS011;40758;54.038;11.684;2023-06-14T09:42:53;6.38;;;2.70;;
7295;SDS011;40758;54.038;11.684;2023-06-14T09:45:21;4.63;;;1.70;;
7295;SDS011;40758;54.038;11.684;2023-06-14T09:47:49;4.80;;;3.33;;
7295;SDS011;40758;54.038;11.684;2023-06-14T09:50:31;5.70;;;2.47;;
7295;SDS011;40758;54.038;11.684;2023-06-14T09:53:00;3.85;;;1.70;;
7295;SDS011;40758;54.038;11.684;2023-06-14T09:55:36;6.10;;;2.88;;
7295;SDS011;40758;54.038;11.684;2023-06-14T09:58:06;4.10;;;1.73;;
7295;SDS011;40758;54.038;11.684;2023-06-14T10:00:34;4.32;;;2.40;;
7295;SDS011;40758;54.038;11.684;2023-06-14T10:03:05;6.32;;;2.42;;
7295;SDS011;40758;54.038;11.684;2023-06-14T10:05:45;4.97;;;2.17;;
7295;SDS011;40758;54.038;11.684;2023-06-14T10:08:18;5.10;;;2.15;;
7295;SDS011;40758;54.038;11.684;2023-06-14T10:10:46;7.22;;;2.47;;
7295;SDS011;40758;54.038;11.684;2023-06-14T10:13:13;5.28;;;1.85;;
7295;SDS011;40758;54.038;11.684;2023-06-14T10:24:09;4.93;;;2.25;;
7295;SDS011;40758;54.038;11.684;2023-06-14T10:26:57;4.18;;;1.50;;
7295;SDS011;40758;54.038;11.684;2023-06-14T10:29:29;5.15;;;2.40;;
7295;SDS011;40758;54.038;11.684;2023-06-14T10:32:00;5.05;;;2.03;;
7295;SDS011;40758;54.038;11.684;2023-06-14T10:34:27;5.18;;;2.20;;
7295;SDS011;40758;54.038;11.684;2023-06-14T10:37:06;4.32;;;2.30;;
7295;SDS011;40758;54.038;11.684;2023-06-14T10:39:41;3.42;;;1.70;;
7295;SDS011;40758;54.038;11.684;2023-06-14T10:42:09;5.47;;;1.92;;
7295;SDS011;40758;54.038;11.684;2023-06-14T10:47:09;6.00;;;2.35;;
7295;SDS011;40758;54.038;11.684;2023-06-14T10:49:41;4.15;;;1.63;;
7295;SDS011;40758;54.038;11.684;2023-06-14T10:52:12;7.05;;;1.98;;
7295;SDS011;40758;54.038;11.684;2023-06-14T10:55:01;4.15;;;1.70;;
7295;SDS011;40758;54.038;11.684;2023-06-14T10:57:52;5.20;;;1.83;;
7295;SDS011;40758;54.038;11.684;2023-06-14T11:00:23;6.13;;;1.75;;
7295;SDS011;40758;54.038;11.684;2023-06-14T11:05:52;4.30;;;1.98;;
7295;SDS011;40758;54.038;11.684;2023-06-14T11:11:07;5.38;;;2.17;;
7295;SDS011;40758;54.038;11.684;2023-06-14T11:13:39;6.05;;;1.63;;
7295;SDS011;40758;54.038;11.684;2023-06-14T11:16:12;5.82;;;1.35;;
7295;SDS011;40758;54.038;11.684;2023-06-14T11:18:40;4.28;;;1.95;;
7295;SDS011;40758;54.038;11.684;2023-06-14T11:23:35;5.85;;;1.55;;
7295;SDS011;40758;54.038;11.684;2023-06-14T11:26:02;5.05;;;1.77;;
7295;SDS011;40758;54.038;11.684;2023-06-14T11:28:37;5.05;;;2.05;;
7295;SDS011;40758;54.038;11.684;2023-06-14T11:31:05;3.70;;;2.00;;
7295;SDS011;40758;54.038;11.684;2023-06-14T11:33:32;4.30;;;1.70;;
7295;SDS011;40758;54.038;11.684;2023-06-14T11:36:03;3.47;;;1.20;;
7295;SDS011;40758;54.038;11.684;2023-06-14T11:38:37;3.88;;;1.80;;
7295;SDS011;40758;54.038;11.684;2023-06-14T11:41:04;6.40;;;1.27;;
7295;SDS011;40758;54.038;11.684;2023-06-14T11:43:31;5.78;;;1.83;;
7295;SDS011;40758;54.038;11.684;2023-06-14T11:45:59;5.30;;;1.48;;
7295;SDS011;40758;54.038;11.684;2023-06-14T11:48:40;5.90;;;2.10;;
7295;SDS011;40758;54.038;11.684;2023-06-14T11:51:08;3.78;;;2.10;;
7295;SDS011;40758;54.038;11.684;2023-06-14T11:53:35;5.72;;;1.08;;
7295;SDS011;40758;54.038;11.684;2023-06-14T11:56:02;3.65;;;1.50;;
7295;SDS011;40758;54.038;11.684;2023-06-14T11:58:29;5.85;;;2.13;;
7295;SDS011;40758;54.038;11.684;2023-06-14T12:00:56;3.35;;;1.75;;
7295;SDS011;40758;54.038;11.684;2023-06-14T12:03:24;5.47;;;1.38;;
7295;SDS011;40758;54.038;11.684;2023-06-14T12:06:06;4.68;;;1.85;;
7295;SDS011;40758;54.038;11.684;2023-06-14T12:08:36;6.47;;;2.05;;
7295;SDS011;40758;54.038;11.684;2023-06-14T12:11:10;4.20;;;1.58;;
7295;SDS011;40758;54.038;11.684;2023-06-14T12:13:38;6.05;;;1.38;;
7295;SDS011;40758;54.038;11.684;2023-06-14T12:16:10;3.22;;;1.20;;
7295;SDS011;40758;54.038;11.684;2023-06-14T12:18:38;3.97;;;1.08;;
7295;SDS011;40758;54.038;11.684;2023-06-14T12:21:06;4.47;;;2.08;;
7295;SDS011;40758;54.038;11.684;2023-06-14T12:26:17;6.78;;;1.95;;
7295;SDS011;40758;54.038;11.684;2023-06-14T12:28:45;3.78;;;2.42;;
7295;SDS011;40758;54.038;11.684;2023-06-14T12:31:13;6.53;;;1.70;;
7295;SDS011;40758;54.038;11.684;2023-06-14T12:33:42;5.72;;;1.20;;
7295;SDS011;40758;54.038;11.684;2023-06-14T12:36:09;4.18;;;1.23;;
7295;SDS011;40758;54.038;11.684;2023-06-14T12:38:37;3.40;;;1.17;;
7295;SDS011;40758;54.038;11.684;2023-06-14T12:41:04;10.43;;;1.80;;
7295;SDS011;40758;54.038;11.684;2023-06-14T12:43:31;5.32;;;2.10;;
7295;SDS011;40758;54.038;11.684;2023-06-14T12:45:58;10.88;;;2.15;;
7295;SDS011;40758;54.038;11.684;2023-06-14T12:48:25;6.15;;;1.63;;
7295;SDS011;40758;54.038;11.684;2023-06-14T12:50:53;8.52;;;1.98;;
7295;SDS011;40758;54.038;11.684;2023-06-14T12:53:20;4.00;;;1.75;;
7295;SDS011;40758;54.038;11.684;2023-06-14T12:55:47;4.35;;;1.33;;
7295;SDS011;40758;54.038;11.684;2023-06-14T12:58:14;6.00;;;2.58;;
7295;SDS011;40758;54.038;11.684;2023-06-14T13:00:41;4.10;;;2.00;;
7295;SDS011;40758;54.038;11.684;2023-06-14T13:03:09;5.07;;;2.60;;
7295;SDS011;40758;54.038;11.684;2023-06-14T13:05:37;4.80;;;1.95;;
7295;SDS011;40758;54.038;11.684;2023-06-14T13:08:07;4.60;;;1.77;;
7295;SDS011;40758;54.038;11.684;2023-06-14T13:10:37;6.28;;;2.15;;
7295;SDS011;40758;54.038;11.684;2023-06-14T13:13:04;4.65;;;1.95;;
7295;SDS011;40758;54.038;11.684;2023-06-14T13:15:32;4.15;;;1.83;;
7295;SDS011;40758;54.038;11.684;2023-06-14T13:20:25;3.95;;;1.70;;
7295;SDS011;40758;54.038;11.684;2023-06-14T13:22:52;4.10;;;1.40;;
7295;SDS011;40758;54.038;11.684;2023-06-14T13:25:19;5.72;;;1.67;;
7295;SDS011;40758;54.038;11.684;2023-06-14T13:27:45;4.38;;;1.55;;
7295;SDS011;40758;54.038;11.684;2023-06-14T13:30:12;3.78;;;2.03;;
7295;SDS011;40758;54.038;11.684;2023-06-14T13:32:39;5.18;;;1.65;;
7295;SDS011;40758;54.038;11.684;2023-06-14T13:35:06;3.33;;;1.70;;
7295;SDS011;40758;54.038;11.684;2023-06-14T13:37:33;5.40;;;1.23;;
7295;SDS011;40758;54.038;11.684;2023-06-14T13:40:00;4.80;;;1.55;;
7295;SDS011;40758;54.038;11.684;2023-06-14T13:42:27;6.30;;;2.05;;
7295;SDS011;40758;54.038;11.684;2023-06-14T13:47:21;5.90;;;2.22;;
7295;SDS011;40758;54.038;11.684;2023-06-14T13:49:47;2.70;;;1.30;;
7295;SDS011;40758;54.038;11.684;2023-06-14T13:52:14;4.80;;;1.80;;
7295;SDS011;40758;54.038;11.684;2023-06-14T13:54:42;4.95;;;1.42;;
7295;SDS011;40758;54.038;11.684;2023-06-14T13:57:11;5.18;;;1.58;;
7295;SDS011;40758;54.038;11.684;2023-06-14T13:59:39;3.95;;;1.23;;
7295;SDS011;40758;54.038;11.684;2023-06-14T14:02:06;3.15;;;1.73;;
7295;SDS011;40758;54.038;11.684;2023-06-14T14:07:04;3.00;;;1.42;;
7295;SDS011;40758;54.038;11.684;2023-06-14T14:09:32;3.40;;;1.30;;
7295;SDS011;40758;54.038;11.684;2023-06-14T14:12:01;4.93;;;1.83;;
7295;SDS011;40758;54.038;11.684;2023-06-14T14:14:29;4.65;;;2.42;;
7295;SDS011;40758;54.038;11.684;2023-06-14T14:16:58;3.40;;;1.92;;
7295;SDS011;40758;54.038;11.684;2023-06-14T14:19:25;4.30;;;2.42;;
7295;SDS011;40758;54.038;11.684;2023-06-14T14:21:52;4.43;;;1.45;;
7295;SDS011;40758;54.038;11.684;2023-06-14T14:24:20;3.65;;;2.25;;
7295;SDS011;40758;54.038;11.684;2023-06-14T14:26:46;3.83;;;1.88;;
7295;SDS011;40758;54.038;11.684;2023-06-14T14:29:19;4.30;;;1.65;;
7295;SDS011;40758;54.038;11.684;2023-06-14T14:31:46;3.50;;;1.80;;
7295;SDS011;40758;54.038;11.684;2023-06-14T14:34:13;5.60;;;1.42;;
7295;SDS011;40758;54.038;11.684;2023-06-14T14:36:40;4.95;;;1.70;;
7295;SDS011;40758;54.038;11.684;2023-06-14T14:39:09;4.35;;;1.35;;
7295;SDS011;40758;54.038;11.684;2023-06-14T14:41:35;3.75;;;2.42;;
7295;SDS011;40758;54.038;11.684;2023-06-14T14:44:07;4.50;;;1.63;;
7295;SDS011;40758;54.038;11.684;2023-06-14T14:46:34;4.35;;;1.65;;
7295;SDS011;40758;54.038;11.684;2023-06-14T14:49:01;3.55;;;2.00;;
7295;SDS011;40758;54.038;11.684;2023-06-14T14:51:29;3.05;;;1.75;;
7295;SDS011;40758;54.038;11.684;2023-06-14T14:53:55;5.13;;;2.30;;
7295;SDS011;40758;54.038;11.684;2023-06-14T14:56:22;5.28;;;2.05;;
7295;SDS011;40758;54.038;11.684;2023-06-14T14:58:49;2.75;;;1.15;;
7295;SDS011;40758;54.038;11.684;2023-06-14T15:01:16;3.88;;;1.20;;
7295;SDS011;40758;54.038;11.684;2023-06-14T15:03:45;4.93;;;1.40;;
7295;SDS011;40758;54.038;11.684;2023-06-14T15:06:14;4.07;;;1.08;;
7295;SDS011;40758;54.038;11.684;2023-06-14T15:08:41;4.45;;;1.70;;
7295;SDS011;40758;54.038;11.684;2023-06-14T15:11:08;3.10;;;1.52;;
7295;SDS011;40758;54.038;11.684;2023-06-14T15:13:35;5.55;;;1.73;;
7295;SDS011;40758;54.038;11.684;2023-06-14T15:16:01;6.10;;;2.30;;
7295;SDS011;40758;54.038;11.684;2023-06-14T15:18:28;4.47;;;1.95;;
7295;SDS011;40758;54.038;11.684;2023-06-14T15:20:55;5.40;;;1.38;;
7295;SDS011;40758;54.038;11.684;2023-06-14T15:23:22;5.20;;;1.88;;
7295;SDS011;40758;54.038;11.684;2023-06-14T15:25:48;4.47;;;1.52;;
7295;SDS011;40758;54.038;11.684;2023-06-14T15:28:15;4.70;;;1.33;;
7295;SDS011;40758;54.038;11.684;2023-06-14T15:30:42;4.15;;;1.17;;
7295;SDS011;40758;54.038;11.684;2023-06-14T15:33:09;3.50;;;2.15;;